Time;durP1;ratioP1;P1;durP2;ratioP2;P2;SDS_P1;SDS_P2;PMS_P1;PMS_P2;Temp;Humidity;BMP_temperature;BMP_pressure;BME280_temperature;BME280_humidity;BME280_pressure;Samples;Min_cycle;Max_cycle;Signal;HPM_P1;HPM_P2
2023/09/19 00:01:46;;;;;;;3.05;1.42;;;;;;;;;;7388591;19;20341;-68
2023/09/19 00:04:14;;;;;;;3.15;1.67;;;;;;;;;;7367335;19;20041;-66
2023/09/19 00:06:40;;;;;;;2.83;1.58;;;;;;;;;;7367532;19;20444;-68
2023/09/19 00:09:10;;;;;;;5.90;1.75;;;;;;;;;;7367343;19;20017;-66
2023/09/19 00:11:36;;;;;;;7.77;1.80;;;;;;;;;;7367784;19;20017;-66
2023/09/19 00:14:01;;;;;;;4.13;1.50;;;;;;;;;;7389266;19;20275;-66
2023/09/19 00:16:27;;;;;;;3.70;1.60;;;;;;;;;;7366789;19;20011;-66
2023/09/19 00:18:52;;;;;;;3.20;1.40;;;;;;;;;;7367277;19;20015;-66
2023/09/19 00:21:19;;;;;;;2.45;1.60;;;;;;;;;;7366898;19;20468;-67
2023/09/19 00:23:44;;;;;;;6.82;1.75;;;;;;;;;;7365365;19;20090;-66
2023/09/19 00:26:09;;;;;;;4.38;1.75;;;;;;;;;;7389155;19;20007;-66
2023/09/19 00:28:35;;;;;;;2.28;1.50;;;;;;;;;;7365063;19;20027;-66
2023/09/19 00:31:01;;;;;;;4.13;1.73;;;;;;;;;;7366711;19;20019;-66
2023/09/19 00:33:29;;;;;;;4.55;1.63;;;;;;;;;;7366018;19;20006;-67
2023/09/19 00:35:56;;;;;;;3.80;1.83;;;;;;;;;;7366085;19;20010;-67
2023/09/19 00:38:24;;;;;;;5.18;1.70;;;;;;;;;;7367208;19;20002;-66
2023/09/19 00:40:53;;;;;;;3.58;1.80;;;;;;;;;;7389278;19;20647;-67
2023/09/19 00:43:18;;;;;;;2.78;1.60;;;;;;;;;;7365086;19;20085;-67
2023/09/19 00:45:47;;;;;;;3.50;1.73;;;;;;;;;;7367546;19;20088;-67
2023/09/19 00:48:14;;;;;;;5.72;2.22;;;;;;;;;;7366711;19;20028;-67
2023/09/19 00:50:42;;;;;;;3.90;1.70;;;;;;;;;;7367297;19;20025;-67
2023/09/19 00:53:09;;;;;;;2.75;1.70;;;;;;;;;;7386583;19;20006;-67
2023/09/19 00:55:37;;;;;;;4.03;1.98;;;;;;;;;;7366805;19;20024;-67
2023/09/19 00:58:02;;;;;;;4.10;2.10;;;;;;;;;;7370713;19;20020;-68
2023/09/19 01:00:28;;;;;;;2.85;1.80;;;;;;;;;;7374662;19;20074;-67
2023/09/19 01:02:54;;;;;;;2.97;1.70;;;;;;;;;;7373237;19;20602;-67
2023/09/19 01:05:20;;;;;;;4.32;1.90;;;;;;;;;;7372666;19;20123;-67
2023/09/19 01:07:48;;;;;;;4.07;1.98;;;;;;;;;;7393443;19;19999;-67
2023/09/19 01:10:16;;;;;;;5.93;1.90;;;;;;;;;;7373701;19;20594;-66
2023/09/19 01:13:08;;;;;;;6.40;2.40;;;;;;;;;;7372290;19;20508;-67
2023/09/19 01:15:39;;;;;;;4.03;2.03;;;;;;;;;;7373083;19;20362;-67
2023/09/19 01:18:23;;;;;;;3.67;1.70;;;;;;;;;;7373350;19;20816;-67
2023/09/19 01:21:09;;;;;;;5.07;2.08;;;;;;;;;;7372844;19;20047;-67
2023/09/19 01:23:43;;;;;;;3.67;1.90;;;;;;;;;;7370335;19;20014;-67
2023/09/19 01:26:36;;;;;;;4.47;2.00;;;;;;;;;;7395229;19;20013;-67
2023/09/19 01:29:34;;;;;;;6.07;2.08;;;;;;;;;;7373278;19;20065;-67
2023/09/19 01:32:04;;;;;;;5.07;1.88;;;;;;;;;;7370544;19;20062;-66
2023/09/19 01:34:48;;;;;;;3.83;1.92;;;;;;;;;;7372006;19;20010;-67
2023/09/19 01:37:25;;;;;;;3.97;1.92;;;;;;;;;;7371178;19;20010;-67
2023/09/19 01:39:55;;;;;;;4.05;1.83;;;;;;;;;;7370307;19;20056;-67
2023/09/19 01:42:41;;;;;;;4.15;2.35;;;;;;;;;;7367443;19;20584;-67
2023/09/19 01:45:36;;;;;;;5.47;2.00;;;;;;;;;;7369255;19;20027;-67
2023/09/19 01:48:43;;;;;;;3.58;2.15;;;;;;;;;;7368265;19;20010;-66
2023/09/19 01:51:12;;;;;;;7.45;2.28;;;;;;;;;;7368550;19;20082;-67
2023/09/19 01:53:56;;;;;;;4.15;1.95;;;;;;;;;;7367552;19;20003;-66
2023/09/19 01:56:42;;;;;;;4.78;2.13;;;;;;;;;;7371627;19;20007;-67
2023/09/19 01:59:11;;;;;;;3.33;2.00;;;;;;;;;;7393046;19;20012;-67
2023/09/19 02:01:37;;;;;;;2.80;1.83;;;;;;;;;;7371870;19;20007;-67
2023/09/19 02:04:03;;;;;;;4.40;2.00;;;;;;;;;;7371757;19;20002;-67
2023/09/19 02:06:28;;;;;;;4.70;2.30;;;;;;;;;;7372041;19;20003;-66
2023/09/19 02:08:55;;;;;;;4.78;2.08;;;;;;;;;;7369114;19;20090;-66
2023/09/19 02:11:20;;;;;;;3.33;2.00;;;;;;;;;;7370876;19;20002;-66
2023/09/19 02:13:46;;;;;;;4.60;1.83;;;;;;;;;;7390645;19;20036;-66
2023/09/19 02:16:12;;;;;;;3.63;2.00;;;;;;;;;;7371253;19;20006;-66
2023/09/19 02:18:39;;;;;;;4.43;1.95;;;;;;;;;;7372866;19;20013;-65
2023/09/19 02:21:06;;;;;;;5.72;2.03;;;;;;;;;;7373348;19;20082;-66
2023/09/19 02:23:33;;;;;;;4.90;1.90;;;;;;;;;;7370000;19;20010;-65
2023/09/19 02:26:00;;;;;;;8.88;2.10;;;;;;;;;;7393214;19;19994;-66
2023/09/19 02:28:29;;;;;;;7.25;1.98;;;;;;;;;;7368930;19;20002;-67
2023/09/19 02:30:58;;;;;;;3.90;2.10;;;;;;;;;;7371036;19;20021;-66
2023/09/19 02:33:24;;;;;;;4.15;1.92;;;;;;;;;;7369523;19;20007;-65
2023/09/19 02:35:50;;;;;;;4.40;1.92;;;;;;;;;;7370941;19;20011;-66
2023/09/19 02:38:20;;;;;;;3.70;2.00;;;;;;;;;;7370806;19;20003;-66
2023/09/19 02:40:46;;;;;;;4.43;1.98;;;;;;;;;;7393195;19;20026;-65
2023/09/19 02:43:11;;;;;;;4.70;2.25;;;;;;;;;;7367875;19;20437;-65
2023/09/19 02:45:37;;;;;;;4.53;1.77;;;;;;;;;;7370954;19;20014;-66
2023/09/19 02:48:02;;;;;;;3.53;1.85;;;;;;;;;;7369664;19;20010;-66
2023/09/19 02:50:28;;;;;;;5.63;2.00;;;;;;;;;;7370215;19;20027;-67
2023/09/19 02:52:54;;;;;;;4.07;2.35;;;;;;;;;;7389968;19;20006;-66
2023/09/19 02:55:19;;;;;;;5.18;1.98;;;;;;;;;;7370107;19;20023;-66
2023/09/19 02:57:50;;;;;;;3.30;1.90;;;;;;;;;;7371395;19;20031;-66
2023/09/19 03:00:21;;;;;;;4.50;2.00;;;;;;;;;;7369345;19;20014;-66
2023/09/19 03:02:52;;;;;;;4.63;2.15;;;;;;;;;;7368222;19;20014;-69
2023/09/19 03:05:18;;;;;;;4.55;2.03;;;;;;;;;;7369063;19;20010;-66
2023/09/19 03:07:45;;;;;;;4.03;2.15;;;;;;;;;;7390411;19;20532;-67
2023/09/19 03:10:11;;;;;;;5.07;2.20;;;;;;;;;;7368744;19;20010;-67
2023/09/19 03:12:36;;;;;;;4.40;2.03;;;;;;;;;;7366978;19;20013;-66
2023/09/19 03:15:03;;;;;;;8.27;2.55;;;;;;;;;;7370926;19;20015;-66
2023/09/19 03:17:29;;;;;;;4.13;2.22;;;;;;;;;;7369344;19;20633;-65
2023/09/19 03:19:54;;;;;;;4.13;2.20;;;;;;;;;;7389509;19;19999;-67
2023/09/19 03:22:20;;;;;;;3.25;2.00;;;;;;;;;;7367471;19;20478;-68
2023/09/19 03:24:46;;;;;;;5.25;2.40;;;;;;;;;;7369844;19;20556;-66
2023/09/19 03:27:13;;;;;;;8.20;2.30;;;;;;;;;;7370049;19;20010;-66
2023/09/19 03:29:39;;;;;;;7.43;2.70;;;;;;;;;;7369765;19;20002;-67
2023/09/19 03:32:04;;;;;;;4.43;1.92;;;;;;;;;;7389301;19;20026;-67
2023/09/19 03:34:30;;;;;;;4.22;1.90;;;;;;;;;;7369114;19;20003;-66
2023/09/19 03:36:55;;;;;;;5.10;2.13;;;;;;;;;;7369532;19;20415;-66
2023/09/19 03:39:20;;;;;;;6.03;2.30;;;;;;;;;;7369177;19;20010;-67
2023/09/19 03:41:46;;;;;;;3.63;1.80;;;;;;;;;;7367978;19;20002;-66
2023/09/19 03:44:11;;;;;;;4.85;1.95;;;;;;;;;;7390537;19;20015;-66
2023/09/19 03:46:37;;;;;;;3.47;1.90;;;;;;;;;;7365886;19;20059;-66
2023/09/19 03:49:02;;;;;;;5.03;1.90;;;;;;;;;;7364296;19;20014;-67
2023/09/19 03:51:28;;;;;;;6.40;2.20;;;;;;;;;;7367135;19;20002;-67
2023/09/19 03:53:53;;;;;;;5.82;2.17;;;;;;;;;;7369498;19;20290;-66
2023/09/19 03:56:18;;;;;;;6.15;2.60;;;;;;;;;;7369506;19;20002;-66
2023/09/19 03:58:44;;;;;;;5.82;2.28;;;;;;;;;;7390010;19;20040;-66
2023/09/19 04:01:10;;;;;;;3.75;2.10;;;;;;;;;;7367904;19;20497;-65
2023/09/19 04:03:45;;;;;;;4.63;2.10;;;;;;;;;;7367810;19;20014;-65
2023/09/19 04:06:12;;;;;;;6.43;2.22;;;;;;;;;;7367116;19;20082;-67
2023/09/19 04:08:38;;;;;;;4.43;2.30;;;;;;;;;;7366170;19;20006;-66
2023/09/19 04:11:03;;;;;;;4.60;2.17;;;;;;;;;;7388604;19;20552;-66
2023/09/19 04:13:29;;;;;;;6.25;2.20;;;;;;;;;;7364625;19;20377;-66
2023/09/19 04:15:55;;;;;;;5.65;2.20;;;;;;;;;;7367256;19;20006;-66
2023/09/19 04:18:20;;;;;;;3.42;2.13;;;;;;;;;;7367412;19;20012;-66
2023/09/19 04:20:52;;;;;;;5.75;2.20;;;;;;;;;;7367961;19;20105;-67
2023/09/19 04:23:19;;;;;;;5.82;2.25;;;;;;;;;;7365104;19;20011;-68
2023/09/19 04:25:45;;;;;;;7.03;2.03;;;;;;;;;;7389143;19;20095;-67
2023/09/19 04:28:10;;;;;;;5.30;2.38;;;;;;;;;;7366356;19;20366;-67
2023/09/19 04:30:37;;;;;;;5.63;2.40;;;;;;;;;;7367252;19;20380;-67
2023/09/19 04:33:05;;;;;;;5.35;2.28;;;;;;;;;;7363072;19;20456;-69
2023/09/19 04:35:31;;;;;;;5.45;2.38;;;;;;;;;;7366360;19;20398;-66
2023/09/19 04:37:57;;;;;;;4.38;2.22;;;;;;;;;;7388647;19;19998;-66
2023/09/19 04:40:22;;;;;;;7.80;2.13;;;;;;;;;;7365528;19;20035;-65
2023/09/19 04:42:57;;;;;;;6.85;2.35;;;;;;;;;;7364918;19;20002;-65
2023/09/19 04:45:23;;;;;;;4.72;2.30;;;;;;;;;;7367573;19;20014;-65
2023/09/19 04:47:48;;;;;;;6.93;2.00;;;;;;;;;;7367349;19;20014;-65
2023/09/19 04:50:13;;;;;;;6.82;2.30;;;;;;;;;;7375623;19;20010;-66
2023/09/19 04:52:44;;;;;;;7.45;2.38;;;;;;;;;;7381567;19;20460;-66
2023/09/19 04:55:19;;;;;;;4.55;2.05;;;;;;;;;;7366235;19;20006;-66
2023/09/19 04:57:48;;;;;;;5.20;2.13;;;;;;;;;;7359943;19;20017;-65
2023/09/19 05:00:17;;;;;;;6.22;2.38;;;;;;;;;;7366125;19;20067;-65
2023/09/19 05:02:43;;;;;;;3.30;1.75;;;;;;;;;;7365987;19;20533;-65
2023/09/19 05:05:14;;;;;;;3.72;2.28;;;;;;;;;;7388310;19;20144;-66
2023/09/19 05:07:41;;;;;;;7.05;2.60;;;;;;;;;;7365217;19;20035;-65
2023/09/19 05:10:07;;;;;;;5.80;2.15;;;;;;;;;;7366142;19;20034;-65
2023/09/19 05:12:34;;;;;;;5.78;1.98;;;;;;;;;;7364965;19;20069;-65
2023/09/19 05:15:01;;;;;;;4.60;2.40;;;;;;;;;;7366964;19;20015;-67
2023/09/19 05:17:26;;;;;;;4.82;2.50;;;;;;;;;;7366071;19;20078;-66
2023/09/19 05:19:52;;;;;;;4.68;2.30;;;;;;;;;;7380968;19;20954;-66
2023/09/19 05:22:18;;;;;;;4.90;2.13;;;;;;;;;;7363833;19;20018;-66
2023/09/19 05:24:47;;;;;;;5.88;2.30;;;;;;;;;;7366218;19;20010;-66
2023/09/19 05:27:13;;;;;;;3.88;2.05;;;;;;;;;;7353214;19;20002;-66
2023/09/19 05:29:40;;;;;;;6.53;2.38;;;;;;;;;;7358594;19;20035;-66
2023/09/19 05:32:05;;;;;;;8.90;2.00;;;;;;;;;;7386630;19;20062;-66
2023/09/19 05:34:30;;;;;;;7.78;2.47;;;;;;;;;;7365517;19;20026;-66
2023/09/19 05:36:56;;;;;;;4.40;2.10;;;;;;;;;;7363101;19;20014;-66
2023/09/19 05:39:22;;;;;;;6.10;2.15;;;;;;;;;;7365867;19;20464;-66
2023/09/19 05:41:48;;;;;;;5.03;2.10;;;;;;;;;;7364989;19;20440;-66
2023/09/19 05:44:14;;;;;;;4.53;2.03;;;;;;;;;;7381880;19;19995;-65
2023/09/19 05:46:39;;;;;;;6.13;2.20;;;;;;;;;;7392570;19;20501;-66
2023/09/19 05:49:05;;;;;;;3.22;1.83;;;;;;;;;;7372645;19;20010;-65
2023/09/19 05:51:30;;;;;;;4.22;2.38;;;;;;;;;;7370754;19;20014;-67
2023/09/19 05:53:56;;;;;;;5.60;2.28;;;;;;;;;;7372293;19;20010;-66
2023/09/19 05:56:21;;;;;;;6.80;2.13;;;;;;;;;;7371343;19;19991;-66
2023/09/19 05:58:46;;;;;;;4.88;2.13;;;;;;;;;;7393805;19;19995;-66
2023/09/19 06:01:12;;;;;;;4.88;2.17;;;;;;;;;;7371660;19;20010;-66
2023/09/19 06:03:37;;;;;;;6.05;2.22;;;;;;;;;;7371069;19;20006;-70
2023/09/19 06:06:04;;;;;;;5.60;2.20;;;;;;;;;;7372704;19;20561;-67
2023/09/19 06:08:31;;;;;;;3.70;2.10;;;;;;;;;;7373393;19;19998;-66
2023/09/19 06:10:56;;;;;;;7.65;2.42;;;;;;;;;;7394192;19;20023;-66
2023/09/19 06:13:22;;;;;;;6.25;2.40;;;;;;;;;;7368674;19;20010;-68
2023/09/19 06:15:47;;;;;;;5.93;2.30;;;;;;;;;;7371521;19;20006;-66
2023/09/19 06:18:19;;;;;;;7.57;2.20;;;;;;;;;;7372236;19;20026;-67
2023/09/19 06:20:46;;;;;;;6.55;2.40;;;;;;;;;;7374054;19;20026;-66
2023/09/19 06:23:11;;;;;;;4.80;2.10;;;;;;;;;;7391984;19;20006;-66
2023/09/19 06:25:37;;;;;;;6.10;2.10;;;;;;;;;;7370828;19;20009;-66
2023/09/19 06:28:05;;;;;;;6.18;2.25;;;;;;;;;;7367046;19;20006;-66
2023/09/19 06:30:32;;;;;;;8.10;2.47;;;;;;;;;;7371413;19;20422;-66
2023/09/19 06:32:58;;;;;;;5.35;2.42;;;;;;;;;;7369934;19;20031;-66
2023/09/19 06:35:23;;;;;;;6.47;2.45;;;;;;;;;;7371181;19;20410;-66
2023/09/19 06:37:50;;;;;;;7.57;2.03;;;;;;;;;;7394155;19;19998;-66
2023/09/19 06:40:16;;;;;;;4.60;2.03;;;;;;;;;;7370848;19;20036;-66
2023/09/19 06:42:45;;;;;;;6.47;2.08;;;;;;;;;;7368857;19;19999;-66
2023/09/19 06:45:17;;;;;;;8.32;2.10;;;;;;;;;;7368925;19;20015;-66
2023/09/19 06:47:45;;;;;;;3.55;1.70;;;;;;;;;;7370290;19;20013;-66
2023/09/19 06:50:13;;;;;;;5.68;1.70;;;;;;;;;;7392590;19;19998;-65
2023/09/19 06:52:40;;;;;;;6.70;1.77;;;;;;;;;;7368760;19;20432;-66
2023/09/19 06:55:06;;;;;;;5.50;2.00;;;;;;;;;;7367614;19;20013;-65
2023/09/19 06:57:32;;;;;;;3.67;1.70;;;;;;;;;;7369835;19;20002;-65
2023/09/19 06:59:57;;;;;;;3.10;1.60;;;;;;;;;;7370714;19;20006;-65
2023/09/19 07:02:22;;;;;;;6.72;2.03;;;;;;;;;;7368625;19;19990;-66
2023/09/19 07:04:49;;;;;;;6.55;1.92;;;;;;;;;;7389738;19;19998;-66
2023/09/19 07:07:15;;;;;;;4.43;1.73;;;;;;;;;;7368008;19;20018;-70
2023/09/19 07:09:41;;;;;;;5.68;1.70;;;;;;;;;;7370958;19;20021;-66
2023/09/19 07:12:07;;;;;;;3.05;1.52;;;;;;;;;;7368023;19;20049;-66
2023/09/19 07:14:32;;;;;;;5.10;2.35;;;;;;;;;;7368938;19;20019;-66
2023/09/19 07:16:59;;;;;;;3.75;1.73;;;;;;;;;;7391605;19;20003;-66
2023/09/19 07:19:28;;;;;;;4.28;1.80;;;;;;;;;;7369306;19;20002;-66
2023/09/19 07:21:53;;;;;;;4.00;1.80;;;;;;;;;;7368993;19;20087;-66
2023/09/19 07:24:19;;;;;;;3.50;1.70;;;;;;;;;;7368322;19;20010;-66
2023/09/19 07:26:45;;;;;;;3.20;1.70;;;;;;;;;;7368718;19;20010;-66
2023/09/19 07:29:11;;;;;;;4.32;1.70;;;;;;;;;;7390808;19;20003;-67
2023/09/19 07:31:36;;;;;;;5.63;1.77;;;;;;;;;;7370560;19;20009;-66
2023/09/19 07:34:03;;;;;;;4.18;1.77;;;;;;;;;;7371170;19;20011;-66
2023/09/19 07:36:29;;;;;;;4.03;1.73;;;;;;;;;;7368597;19;20073;-64
2023/09/19 07:38:55;;;;;;;8.88;2.10;;;;;;;;;;7368392;19;20002;-65
2023/09/19 07:41:21;;;;;;;4.15;1.60;;;;;;;;;;7367440;19;20005;-65
2023/09/19 07:43:46;;;;;;;4.35;1.77;;;;;;;;;;7387892;19;19998;-66
2023/09/19 07:46:11;;;;;;;5.32;1.70;;;;;;;;;;7367755;19;20142;-65
2023/09/19 07:48:38;;;;;;;3.63;1.73;;;;;;;;;;7367855;19;20475;-68
2023/09/19 07:51:06;;;;;;;3.17;1.52;;;;;;;;;;7368268;19;20006;-66
2023/09/19 07:53:34;;;;;;;4.05;1.63;;;;;;;;;;7366141;19;20045;-65
2023/09/19 07:56:08;;;;;;;3.83;1.60;;;;;;;;;;7390018;19;20006;-67
2023/09/19 07:58:34;;;;;;;3.85;1.70;;;;;;;;;;7367621;19;20002;-59
2023/09/19 08:01:07;;;;;;;2.08;1.30;;;;;;;;;;7367643;19;20736;-58
2023/09/19 08:03:40;;;;;;;5.13;1.83;;;;;;;;;;7367231;19;20609;-60
2023/09/19 08:06:07;;;;;;;4.85;1.60;;;;;;;;;;7367677;19;20002;-59
2023/09/19 08:08:34;;;;;;;6.05;1.80;;;;;;;;;;7366396;19;20023;-59
2023/09/19 08:10:59;;;;;;;4.32;1.70;;;;;;;;;;7389567;19;20009;-58
2023/09/19 08:13:26;;;;;;;11.70;2.25;;;;;;;;;;7364841;19;20010;-59
2023/09/19 08:15:53;;;;;;;5.35;1.70;;;;;;;;;;7367245;19;20037;-59
2023/09/19 08:18:19;;;;;;;3.97;1.60;;;;;;;;;;7367111;19;20003;-59
2023/09/19 08:20:50;;;;;;;1.98;1.25;;;;;;;;;;7366347;19;20009;-57
2023/09/19 08:23:16;;;;;;;3.70;1.70;;;;;;;;;;7364179;19;20066;-61
2023/09/19 08:25:41;;;;;;;4.80;1.63;;;;;;;;;;7388179;19;19990;-65
2023/09/19 08:28:08;;;;;;;5.75;1.90;;;;;;;;;;7366293;19;20026;-65
2023/09/19 08:30:34;;;;;;;5.15;2.13;;;;;;;;;;7367439;19;20038;-65
2023/09/19 08:33:00;;;;;;;6.45;1.67;;;;;;;;;;7366204;19;20476;-65
2023/09/19 08:35:29;;;;;;;7.50;1.83;;;;;;;;;;7366595;19;20002;-65
2023/09/19 08:37:55;;;;;;;5.90;2.15;;;;;;;;;;7387763;19;20639;-65
2023/09/19 08:40:21;;;;;;;4.00;1.73;;;;;;;;;;7367097;19;20030;-65
2023/09/19 08:42:56;;;;;;;3.67;1.50;;;;;;;;;;7365878;19;20066;-67
2023/09/19 08:45:23;;;;;;;3.72;1.80;;;;;;;;;;7367327;19;20031;-65
2023/09/19 08:48:17;;;;;;;4.03;1.60;;;;;;;;;;7366027;19;20424;-68
2023/09/19 08:50:50;;;;;;;4.40;1.80;;;;;;;;;;7366348;19;20030;-66
2023/09/19 08:53:42;;;;;;;2.63;1.70;;;;;;;;;;7364425;19;20011;-64
2023/09/19 08:56:10;;;;;;;3.83;1.83;;;;;;;;;;7389226;19;20027;-65
2023/09/19 08:58:46;;;;;;;7.68;1.70;;;;;;;;;;7369294;19;20026;-65
2023/09/19 09:01:15;;;;;;;4.97;1.70;;;;;;;;;;7366866;19;20325;-65
2023/09/19 09:03:43;;;;;;;3.78;1.60;;;;;;;;;;7364798;19;20014;-65
2023/09/19 09:06:13;;;;;;;4.80;1.70;;;;;;;;;;7365052;19;20466;-65
2023/09/19 09:08:39;;;;;;;8.65;1.83;;;;;;;;;;7364354;19;20002;-65
2023/09/19 09:11:07;;;;;;;4.55;1.60;;;;;;;;;;7387484;19;20019;-65
2023/09/19 09:13:35;;;;;;;4.50;1.77;;;;;;;;;;7363185;19;20486;-65
2023/09/19 09:16:00;;;;;;;7.57;1.90;;;;;;;;;;7364239;19;20121;-68
2023/09/19 09:18:25;;;;;;;4.85;1.63;;;;;;;;;;7366595;19;20081;-65
2023/09/19 09:20:51;;;;;;;6.90;1.92;;;;;;;;;;7372149;19;20033;-65
2023/09/19 09:23:16;;;;;;;5.25;1.80;;;;;;;;;;7370145;19;20014;-65
2023/09/19 09:25:54;;;;;;;7.97;1.70;;;;;;;;;;7392026;19;20079;-65
2023/09/19 09:28:22;;;;;;;3.40;1.75;;;;;;;;;;7369302;19;20009;-65
2023/09/19 09:30:48;;;;;;;5.57;1.73;;;;;;;;;;7372811;19;20027;-64
2023/09/19 09:33:16;;;;;;;5.13;1.85;;;;;;;;;;7371022;19;20034;-65
2023/09/19 09:35:52;;;;;;;4.07;1.60;;;;;;;;;;7372854;19;20056;-65
2023/09/19 09:38:21;;;;;;;6.20;1.80;;;;;;;;;;7371726;19;20002;-65
2023/09/19 09:43:40;;;;;;;7.30;1.80;;;;;;;;;;7369077;19;20016;-64
2023/09/19 09:46:58;;;;;;;6.20;1.80;;;;;;;;;;7370824;19;20469;-65
2023/09/19 09:49:18;;;;;;;9.75;2.08;;;;;;;;;;7370673;19;20035;-65
2023/09/19 09:51:59;;;;;;;5.88;2.05;;;;;;;;;;7370651;19;20055;-64
2023/09/19 09:54:47;;;;;;;5.20;1.83;;;;;;;;;;7372313;19;20006;-65
2023/09/19 09:57:23;;;;;;;5.78;1.90;;;;;;;;;;7372057;19;20031;-65
2023/09/19 09:59:53;;;;;;;3.88;1.83;;;;;;;;;;7370546;19;20079;-65
2023/09/19 10:02:23;;;;;;;6.75;1.90;;;;;;;;;;7370286;19;20018;-65
2023/09/19 10:04:58;;;;;;;9.13;2.08;;;;;;;;;;7394220;19;20075;-65
2023/09/19 10:07:27;;;;;;;6.10;1.77;;;;;;;;;;7370557;19;20021;-65
2023/09/19 10:09:59;;;;;;;7.47;2.08;;;;;;;;;;7370889;19;20465;-64
2023/09/19 10:12:27;;;;;;;4.75;1.77;;;;;;;;;;7369794;19;20030;-65
2023/09/19 10:14:53;;;;;;;4.78;1.80;;;;;;;;;;7371416;19;20034;-64
2023/09/19 10:17:23;;;;;;;5.55;1.95;;;;;;;;;;7372034;19;20349;-65
2023/09/19 10:19:57;;;;;;;6.70;1.70;;;;;;;;;;7393991;19;19994;-65
2023/09/19 10:22:24;;;;;;;5.75;1.80;;;;;;;;;;7369978;19;20013;-65
2023/09/19 10:24:53;;;;;;;5.45;1.90;;;;;;;;;;7371515;19;20011;-65
2023/09/19 10:27:21;;;;;;;6.68;2.05;;;;;;;;;;7368707;19;20024;-68
2023/09/19 10:29:53;;;;;;;3.78;1.80;;;;;;;;;;7368482;19;20099;-65
2023/09/19 10:32:20;;;;;;;6.68;1.92;;;;;;;;;;7368979;19;20012;-65
2023/09/19 10:34:50;;;;;;;5.43;1.92;;;;;;;;;;7392341;19;20015;-66
2023/09/19 10:37:16;;;;;;;5.50;1.83;;;;;;;;;;7369798;19;20838;-65
2023/09/19 10:39:45;;;;;;;8.15;2.20;;;;;;;;;;7368878;19;20010;-65
2023/09/19 10:42:17;;;;;;;5.68;1.80;;;;;;;;;;7366379;19;20378;-63
2023/09/19 10:44:45;;;;;;;3.42;1.80;;;;;;;;;;7367673;19;20010;-64
2023/09/19 10:47:10;;;;;;;4.72;1.58;;;;;;;;;;7388524;19;20021;-65
2023/09/19 10:49:46;;;;;;;7.50;1.92;;;;;;;;;;7367123;19;20828;-64
2023/09/19 10:52:18;;;;;;;8.52;2.25;;;;;;;;;;7365133;19;20515;-64
2023/09/19 10:54:51;;;;;;;6.00;1.88;;;;;;;;;;7366300;19;20000;-64
2023/09/19 10:57:27;;;;;;;7.47;1.60;;;;;;;;;;7368840;19;20016;-65
2023/09/19 11:00:26;;;;;;;8.43;2.10;;;;;;;;;;7370183;19;20066;-64
2023/09/19 11:03:09;;;;;;;5.72;1.75;;;;;;;;;;7368711;19;20314;-65
2023/09/19 11:05:34;;;;;;;5.70;1.98;;;;;;;;;;7369524;19;20021;-64
2023/09/19 11:08:04;;;;;;;7.90;2.10;;;;;;;;;;7390904;19;20002;-64
2023/09/19 11:10:45;;;;;;;6.65;1.85;;;;;;;;;;7368675;19;20352;-65
2023/09/19 11:13:26;;;;;;;7.60;2.22;;;;;;;;;;7367639;19;20019;-65
2023/09/19 11:15:57;;;;;;;5.47;1.80;;;;;;;;;;7369386;19;20010;-65
2023/09/19 11:18:46;;;;;;;7.65;1.83;;;;;;;;;;7368941;19;20101;-65
2023/09/19 11:21:31;;;;;;;5.55;1.95;;;;;;;;;;7368415;19;20006;-64
2023/09/19 11:24:19;;;;;;;7.20;2.10;;;;;;;;;;7368302;19;20082;-65
2023/09/19 11:26:47;;;;;;;5.18;1.77;;;;;;;;;;7369849;19;20006;-64
2023/09/19 11:29:25;;;;;;;5.82;2.15;;;;;;;;;;7384936;19;20455;-64
2023/09/19 11:31:51;;;;;;;4.85;1.90;;;;;;;;;;7389380;19;20046;-65
2023/09/19 11:34:35;;;;;;;4.60;1.90;;;;;;;;;;7368019;19;20003;-64
2023/09/19 11:37:04;;;;;;;8.57;2.00;;;;;;;;;;7369129;19;20031;-64
2023/09/19 11:39:30;;;;;;;5.65;1.90;;;;;;;;;;7367873;19;20405;-64
2023/09/19 11:41:57;;;;;;;6.07;2.08;;;;;;;;;;7366811;19;20027;-64
2023/09/19 11:44:26;;;;;;;6.10;2.00;;;;;;;;;;7367897;19;20035;-64
2023/09/19 11:46:52;;;;;;;3.72;1.95;;;;;;;;;;7390197;19;19986;-64
2023/09/19 11:49:23;;;;;;;5.60;2.00;;;;;;;;;;7368429;19;20006;-65
2023/09/19 11:51:51;;;;;;;8.82;2.40;;;;;;;;;;7365916;19;20579;-64
2023/09/19 11:54:21;;;;;;;5.38;2.10;;;;;;;;;;7367840;19;20487;-64
2023/09/19 11:56:50;;;;;;;4.47;1.73;;;;;;;;;;7368109;19;20020;-64
2023/09/19 11:59:22;;;;;;;5.00;1.85;;;;;;;;;;7367539;19;20002;-64
2023/09/19 12:01:57;;;;;;;8.27;2.33;;;;;;;;;;7389015;19;20003;-65
2023/09/19 12:04:37;;;;;;;6.72;1.65;;;;;;;;;;7370152;19;20391;-64
2023/09/19 12:07:16;;;;;;;7.60;2.13;;;;;;;;;;7369654;19;20010;-66
2023/09/19 12:09:44;;;;;;;5.72;1.98;;;;;;;;;;7368497;19;20010;-65
2023/09/19 12:12:27;;;;;;;4.82;1.90;;;;;;;;;;7365711;19;20002;-65
2023/09/19 12:14:54;;;;;;;5.25;1.75;;;;;;;;;;7367539;19;20032;-65
2023/09/19 12:17:22;;;;;;;6.03;1.80;;;;;;;;;;7367542;19;20010;-65
2023/09/19 12:19:52;;;;;;;6.45;1.73;;;;;;;;;;7388696;19;20010;-65
2023/09/19 12:22:20;;;;;;;5.13;1.70;;;;;;;;;;7365405;19;20006;-65
2023/09/19 12:24:46;;;;;;;5.30;2.00;;;;;;;;;;7366741;19;20034;-64
2023/09/19 12:27:13;;;;;;;5.65;1.70;;;;;;;;;;7366754;19;20031;-65
2023/09/19 12:29:43;;;;;;;6.28;1.83;;;;;;;;;;7365477;19;20022;-65
2023/09/19 12:32:09;;;;;;;3.70;1.48;;;;;;;;;;7386980;19;20011;-67
2023/09/19 12:34:35;;;;;;;5.07;1.80;;;;;;;;;;7366063;19;20031;-65
2023/09/19 12:37:05;;;;;;;6.78;1.90;;;;;;;;;;7366876;19;20010;-64
2023/09/19 12:39:31;;;;;;;;;;;;;;;;;;7367153;19;20439;-65
2023/09/19 12:41:56;;;;;;;5.03;1.60;;;;;;;;;;7365178;19;19922;-64
2023/09/19 12:44:24;;;;;;;5.60;1.80;;;;;;;;;;7366603;19;20014;-64
2023/09/19 12:46:50;;;;;;;4.90;1.52;;;;;;;;;;7388669;19;20460;-65
2023/09/19 12:49:19;;;;;;;4.97;1.60;;;;;;;;;;7364951;19;20010;-64
2023/09/19 12:51:47;;;;;;;6.63;1.70;;;;;;;;;;7365523;19;20167;-65
2023/09/19 12:54:14;;;;;;;5.38;1.95;;;;;;;;;;7370171;19;20444;-65
2023/09/19 12:56:44;;;;;;;4.35;1.80;;;;;;;;;;7373760;19;20034;-65
2023/09/19 12:59:13;;;;;;;7.33;1.90;;;;;;;;;;7394785;19;20016;-65
2023/09/19 13:01:46;;;;;;;4.35;1.60;;;;;;;;;;7372296;19;20478;-65
2023/09/19 13:04:29;;;;;;;6.10;1.98;;;;;;;;;;7372958;19;20006;-65
2023/09/19 13:06:59;;;;;;;5.22;1.67;;;;;;;;;;7372439;19;20356;-65
2023/09/19 13:09:28;;;;;;;4.25;1.55;;;;;;;;;;7364351;19;20006;-65
2023/09/19 13:11:54;;;;;;;3.40;1.60;;;;;;;;;;7373146;19;20098;-65
2023/09/19 13:14:24;;;;;;;3.78;1.70;;;;;;;;;;7371960;19;20014;-65
2023/09/19 13:17:04;;;;;;;4.78;1.40;;;;;;;;;;7392478;19;20460;-64
2023/09/19 13:19:37;;;;;;;5.05;1.42;;;;;;;;;;7371968;19;20064;-65
2023/09/19 13:22:03;;;;;;;6.45;1.80;;;;;;;;;;7370471;19;20018;-66
2023/09/19 13:24:30;;;;;;;3.35;1.52;;;;;;;;;;7371109;19;20021;-65
2023/09/19 13:26:56;;;;;;;4.55;1.50;;;;;;;;;;7370965;19;20002;-64
2023/09/19 13:29:22;;;;;;;3.65;1.48;;;;;;;;;;7371034;19;20036;-65
2023/09/19 13:31:48;;;;;;;5.13;1.80;;;;;;;;;;7392186;19;20576;-64
2023/09/19 13:34:16;;;;;;;5.13;1.58;;;;;;;;;;7371166;19;20007;-65
2023/09/19 13:36:42;;;;;;;4.20;1.77;;;;;;;;;;7370011;19;20030;-65
2023/09/19 13:39:09;;;;;;;5.28;2.13;;;;;;;;;;7371118;19;20037;-65
2023/09/19 13:41:36;;;;;;;4.15;1.60;;;;;;;;;;7370020;19;20015;-66
2023/09/19 13:44:02;;;;;;;3.42;1.63;;;;;;;;;;7393416;19;20010;-65
2023/09/19 13:46:27;;;;;;;4.10;1.42;;;;;;;;;;7371367;19;20022;-64
2023/09/19 13:48:56;;;;;;;5.53;1.70;;;;;;;;;;7371240;19;20041;-65
2023/09/19 13:51:23;;;;;;;3.78;1.55;;;;;;;;;;7369942;19;20006;-65
2023/09/19 13:53:48;;;;;;;5.00;1.48;;;;;;;;;;7370816;19;20006;-64
2023/09/19 13:56:13;;;;;;;3.05;1.25;;;;;;;;;;7381709;19;20031;-64
2023/09/19 13:58:39;;;;;;;3.58;1.33;;;;;;;;;;7386560;19;20002;-65
2023/09/19 14:01:04;;;;;;;4.78;1.50;;;;;;;;;;7370910;19;20015;-65
2023/09/19 14:03:31;;;;;;;5.97;1.60;;;;;;;;;;7370483;19;20034;-66
2023/09/19 14:05:57;;;;;;;2.50;1.30;;;;;;;;;;7372450;19;20015;-65
2023/09/19 14:08:23;;;;;;;6.50;1.60;;;;;;;;;;7370151;19;19998;-65
2023/09/19 14:10:49;;;;;;;3.20;1.30;;;;;;;;;;7393975;19;20006;-65
2023/09/19 14:13:15;;;;;;;2.10;1.25;;;;;;;;;;7368767;19;20025;-65
2023/09/19 14:15:40;;;;;;;5.45;1.60;;;;;;;;;;7371506;19;20010;-65
2023/09/19 14:18:06;;;;;;;6.82;1.45;;;;;;;;;;7370253;19;20081;-65
2023/09/19 14:20:31;;;;;;;2.92;1.30;;;;;;;;;;7371503;19;20041;-65
2023/09/19 14:22:58;;;;;;;2.75;1.38;;;;;;;;;;7390977;19;20009;-64
2023/09/19 14:25:25;;;;;;;4.47;1.42;;;;;;;;;;7371407;19;20017;-64
2023/09/19 14:27:50;;;;;;;4.65;1.83;;;;;;;;;;7369387;19;20010;-64
2023/09/19 14:30:16;;;;;;;3.47;1.52;;;;;;;;;;7371559;19;20091;-65
2023/09/19 14:32:41;;;;;;;4.70;1.60;;;;;;;;;;7370559;19;20117;-65
2023/09/19 14:35:07;;;;;;;4.28;1.73;;;;;;;;;;7393948;19;20539;-64
2023/09/19 14:37:33;;;;;;;3.10;1.42;;;;;;;;;;7371200;19;20073;-65
2023/09/19 14:39:58;;;;;;;3.92;1.65;;;;;;;;;;7368953;19;20002;-65
2023/09/19 14:42:23;;;;;;;5.15;1.40;;;;;;;;;;7368485;19;20014;-65
2023/09/19 14:44:49;;;;;;;6.07;1.60;;;;;;;;;;7370885;19;20002;-65
2023/09/19 14:47:16;;;;;;;5.30;1.90;;;;;;;;;;7370420;19;20017;-64
2023/09/19 14:49:42;;;;;;;3.70;1.58;;;;;;;;;;7391551;19;20348;-65
2023/09/19 14:52:08;;;;;;;3.08;1.45;;;;;;;;;;7368685;19;20018;-64
2023/09/19 14:54:33;;;;;;;5.05;1.60;;;;;;;;;;7369872;19;20053;-66
2023/09/19 14:57:04;;;;;;;4.85;1.60;;;;;;;;;;7369812;19;20082;-65